Time;durP1;ratioP1;P1;durP2;ratioP2;P2;SDS_P1;SDS_P2;PMS_P1;PMS_P2;Temp;Humidity;BMP_temperature;BMP_pressure;BME280_temperature;BME280_humidity;BME280_pressure;Samples;Min_cycle;Max_cycle;Signal;HPM_P1;HPM_P2
2022/10/19 00:01:20;;;;;;;1.20;0.30;;;11.60;99.90;;;;;;6225057;22;20011;-89
2022/10/19 00:03:52;;;;;;;0.63;0.20;;;11.70;99.90;;;;;;6246019;22;20086;-93
2022/10/19 00:06:24;;;;;;;0.63;0.30;;;11.70;99.90;;;;;;6225322;22;20055;-89
2022/10/19 00:08:59;;;;;;;1.25;0.40;;;11.70;99.90;;;;;;6224965;22;20526;-91
2022/10/19 00:11:26;;;;;;;1.33;0.32;;;11.70;99.90;;;;;;6224958;22;20038;-90
2022/10/19 00:14:13;;;;;;;1.00;0.30;;;11.70;99.90;;;;;;6225352;22;20012;-89
2022/10/19 00:16:39;;;;;;;1.35;0.20;;;11.70;99.90;;;;;;6200255;22;20055;-90
2022/10/19 00:19:12;;;;;;;2.00;0.40;;;11.70;99.90;;;;;;6224179;22;20587;-90
2022/10/19 00:21:38;;;;;;;1.08;0.25;;;11.80;99.90;;;;;;6224884;22;20020;-90
2022/10/19 00:24:05;;;;;;;1.92;0.40;;;11.80;99.90;;;;;;6224437;22;20015;-90
2022/10/19 00:26:31;;;;;;;2.30;0.50;;;11.80;99.90;;;;;;6200184;22;20019;-91
2022/10/19 00:32:47;;;;;;;2.22;0.35;;;11.80;99.90;;;;;;6281046;22;20051;-93
2022/10/19 00:35:13;;;;;;;5.03;0.50;;;11.80;99.90;;;;;;6255369;22;20015;-94
2022/10/19 00:37:38;;;;;;;1.07;0.37;;;11.80;99.90;;;;;;6255582;22;20030;-93
2022/10/19 00:40:04;;;;;;;1.80;0.33;;;11.80;99.90;;;;;;6255476;22;20483;-93
2022/10/19 00:42:30;;;;;;;1.30;0.40;;;11.80;99.90;;;;;;6255574;22;20015;-93
2022/10/19 00:44:59;;;;;;;2.10;0.30;;;11.80;99.90;;;;;;6255381;22;20340;-93
2022/10/19 00:47:42;;;;;;;1.20;0.20;;;11.80;99.90;;;;;;6256473;22;20075;-94
2022/10/19 00:50:09;;;;;;;1.50;0.10;;;11.80;99.90;;;;;;6255268;22;20026;-93
2022/10/19 00:52:35;;;;;;;1.75;0.17;;;11.90;99.90;;;;;;6255652;22;20011;-94
2022/10/19 00:55:01;;;;;;;1.13;0.20;;;11.90;99.90;;;;;;6281141;22;20104;-93
2022/10/19 00:57:32;;;;;;;2.70;0.30;;;12.00;99.90;;;;;;6255175;22;20019;-93
2022/10/19 01:00:01;;;;;;;1.35;0.30;;;12.00;99.90;;;;;;6255567;22;20015;-93
2022/10/19 01:02:29;;;;;;;2.22;0.10;;;12.10;99.90;;;;;;6256873;22;20016;-94
2022/10/19 01:05:26;;;;;;;;;;;;;;;;;;;;;
2022/10/19 01:07:54;;;;;;;1.00;0.25;;;12.10;99.90;;;;;;6303566;22;19999;-94
2022/10/19 01:10:27;;;;;;;0.95;0.20;;;12.10;99.90;;;;;;6230470;22;20015;-93
2022/10/19 01:13:33;;;;;;;2.13;0.20;;;12.10;99.90;;;;;;6256128;22;20015;-92
2022/10/19 01:16:06;;;;;;;3.20;0.30;;;12.10;99.90;;;;;;6257034;22;20098;-93
2022/10/19 01:18:43;;;;;;;2.17;0.35;;;12.10;99.90;;;;;;6257628;22;20145;-93
2022/10/19 01:21:38;;;;;;;0.80;0.10;;;12.10;99.90;;;;;;6257120;22;20015;-92
2022/10/19 01:24:59;;;;;;;0.28;0.10;;;12.10;99.90;;;;;;6257020;22;20019;-93
2022/10/19 01:27:54;;;;;;;1.08;0.30;;;12.10;99.90;;;;;;6136161;23;20017;-93
2022/10/19 01:35:57;;;;;;;1.05;0.28;;;12.10;99.90;;;;;;6307207;22;20023;-94
2022/10/19 01:39:14;;;;;;;1.88;0.30;;;12.10;99.90;;;;;;6258010;22;20019;-93
2022/10/19 01:41:57;;;;;;;0.65;0.20;;;12.10;99.90;;;;;;6280626;22;20015;-91
2022/10/19 02:10:20;;;;;;;3.00;0.40;;;12.20;99.90;;;;;;6278462;22;20071;-92
2022/10/19 02:12:48;;;;;;;1.58;0.32;;;12.20;99.90;;;;;;6202198;22;20019;-93
2022/10/19 02:15:17;;;;;;;3.65;0.45;;;12.20;99.90;;;;;;6226030;22;20098;-92
2022/10/19 02:17:47;;;;;;;2.00;0.30;;;12.20;99.90;;;;;;6226294;22;20020;-91
2022/10/19 02:20:14;;;;;;;2.55;0.75;;;12.20;99.90;;;;;;6226459;22;20099;-92
2022/10/19 02:23:05;;;;;;;2.35;0.60;;;12.20;99.90;;;;;;6227027;22;20019;-92
2022/10/19 02:25:35;;;;;;;3.00;0.30;;;12.20;99.90;;;;;;6226702;22;20019;-93
2022/10/19 02:28:02;;;;;;;2.80;0.38;;;12.20;99.90;;;;;;6226184;22;20012;-92
2022/10/19 02:30:31;;;;;;;1.98;0.32;;;12.20;99.90;;;;;;6226220;22;20407;-92
2022/10/19 02:32:57;;;;;;;1.92;0.35;;;12.20;99.90;;;;;;6226285;22;20095;-92
2022/10/19 02:35:23;;;;;;;1.92;0.30;;;12.20;99.90;;;;;;6225932;22;20484;-93
2022/10/19 02:37:49;;;;;;;1.65;0.32;;;12.20;99.90;;;;;;6226256;22;20463;-92
2022/10/19 02:40:15;;;;;;;2.92;0.35;;;12.20;99.90;;;;;;6225950;22;20026;-92
2022/10/19 02:43:04;;;;;;;3.70;0.38;;;12.20;99.90;;;;;;6225554;22;20011;-93
2022/10/19 02:45:37;;;;;;;2.80;0.22;;;12.10;99.90;;;;;;6225892;22;20015;-92
2022/10/19 02:48:22;;;;;;;2.72;0.38;;;12.10;99.90;;;;;;6225707;22;20073;-94
2022/10/19 02:50:51;;;;;;;0.75;0.20;;;12.10;99.90;;;;;;6226142;22;20019;-93
2022/10/19 02:53:20;;;;;;;1.77;0.40;;;12.00;99.90;;;;;;6225636;22;20447;-93
2022/10/19 02:55:50;;;;;;;1.85;0.32;;;12.00;99.90;;;;;;6225869;22;20441;-92
2022/10/19 02:58:16;;;;;;;2.47;0.30;;;12.00;99.90;;;;;;6225586;22;20011;-92
2022/10/19 03:01:05;;;;;;;6.57;0.40;;;12.00;99.90;;;;;;6226456;22;20022;-93
2022/10/19 03:03:30;;;;;;;4.00;0.30;;;11.90;99.90;;;;;;6228734;22;20251;-92
2022/10/19 03:05:58;;;;;;;2.97;0.55;;;11.90;99.90;;;;;;6225995;22;20022;-94
2022/10/19 03:08:26;;;;;;;1.52;0.40;;;11.90;99.90;;;;;;6225744;22;20016;-92
2022/10/19 03:14:03;;;;;;;2.03;0.25;;;11.90;99.90;;;;;;6281905;22;20019;-93
2022/10/19 03:16:34;;;;;;;3.00;0.80;;;11.90;99.90;;;;;;6255566;22;20023;-93
2022/10/19 03:19:08;;;;;;;1.75;0.20;;;11.80;99.90;;;;;;6231181;22;20035;-93
2022/10/19 03:21:34;;;;;;;1.58;0.30;;;11.80;99.90;;;;;;6231855;22;20011;-92
2022/10/19 03:24:05;;;;;;;2.95;0.40;;;11.80;99.90;;;;;;6255995;22;20106;-93
2022/10/19 03:26:30;;;;;;;1.63;0.52;;;11.80;99.90;;;;;;6230873;22;20038;-92
2022/10/19 03:29:02;;;;;;;4.22;0.30;;;11.80;99.90;;;;;;6256784;22;20022;-92
2022/10/19 03:31:31;;;;;;;1.08;0.20;;;11.80;99.90;;;;;;6281350;22;20019;-93
2022/10/19 03:34:00;;;;;;;1.45;0.30;;;11.80;99.90;;;;;;6255932;22;20034;-93
2022/10/19 03:41:35;;;;;;;2.78;0.40;;;11.70;99.90;;;;;;6277550;22;20019;-93
2022/10/19 03:44:08;;;;;;;7.00;0.68;;;11.70;99.90;;;;;;6225392;22;20024;-93
2022/10/19 03:46:57;;;;;;;2.67;0.30;;;11.70;99.90;;;;;;6227223;22;20073;-92
2022/10/19 04:17:52;;;;;;;1.67;0.22;;;11.60;99.90;;;;;;6276353;22;20024;-91
2022/10/19 04:20:20;;;;;;;1.98;0.30;;;11.60;99.90;;;;;;6224868;22;20026;-93
2022/10/19 04:22:50;;;;;;;3.70;0.30;;;11.60;99.90;;;;;;6224899;22;20095;-92
2022/10/19 04:25:26;;;;;;;3.17;0.40;;;11.50;99.90;;;;;;6224458;22;20023;-92
2022/10/19 04:28:22;;;;;;;1.35;0.22;;;11.50;99.90;;;;;;6225131;22;20051;-94
2022/10/19 04:44:50;;;;;;;5.93;0.50;;;11.20;99.90;;;;;;6275605;22;20031;-91
2022/10/19 05:42:44;;;;;;;1.40;0.22;;;11.50;99.90;;;;;;6277078;22;20353;-92
2022/10/19 05:45:10;;;;;;;3.65;0.40;;;11.50;99.90;;;;;;6226480;22;20030;-92
2022/10/19 06:13:12;;;;;;;5.22;0.28;;;11.50;99.90;;;;;;6277071;22;20020;-92
2022/10/19 06:59:03;;;;;;;0.73;0.20;;;11.60;99.90;;;;;;6307838;22;20023;-90
2022/10/19 07:01:29;;;;;;;2.25;0.30;;;11.60;99.90;;;;;;6256450;22;20114;-90
2022/10/19 07:03:55;;;;;;;4.30;0.28;;;11.60;99.90;;;;;;6231136;22;20424;-94
2022/10/19 07:06:21;;;;;;;1.77;0.43;;;11.60;99.90;;;;;;6231295;22;20058;-93
2022/10/19 07:08:47;;;;;;;2.83;0.35;;;11.60;99.90;;;;;;6257490;22;20086;-95
2022/10/19 07:11:50;;;;;;;1.43;0.33;;;11.60;99.90;;;;;;6256227;22;20093;-93
2022/10/19 07:14:37;;;;;;;;;;;;;;;;;;;;;
2022/10/19 07:17:07;;;;;;;3.47;0.20;;;11.60;99.90;;;;;;6237283;22;20387;-94
2022/10/19 07:19:33;;;;;;;2.13;0.85;;;11.70;99.90;;;;;;6281938;22;20015;-95
2022/10/19 07:21:58;;;;;;;3.70;0.70;;;11.70;99.90;;;;;;6256012;22;20023;-93
2022/10/19 07:24:24;;;;;;;0.70;0.20;;;11.70;99.90;;;;;;6230884;22;20050;-93
2022/10/19 07:26:50;;;;;;;3.43;0.27;;;11.70;99.90;;;;;;6256075;22;20019;-91
2022/10/19 07:29:16;;;;;;;2.07;0.50;;;11.70;99.90;;;;;;6230990;22;20246;-93
2022/10/19 07:31:41;;;;;;;3.80;0.40;;;11.70;99.90;;;;;;6256963;22;20345;-96
2022/10/19 07:34:12;;;;;;;3.50;0.40;;;11.80;99.90;;;;;;6257186;22;20247;-93
2022/10/19 07:36:38;;;;;;;2.92;0.22;;;11.70;99.90;;;;;;6257065;22;20353;-93
2022/10/19 07:39:06;;;;;;;1.02;0.32;;;11.80;99.90;;;;;;6256665;22;20022;-89
2022/10/19 07:41:33;;;;;;;2.28;0.30;;;11.80;99.90;;;;;;6281900;22;20015;-94
2022/10/19 07:44:00;;;;;;;2.67;0.65;;;11.80;99.90;;;;;;6256030;22;20441;-95
2022/10/19 07:46:32;;;;;;;1.88;0.32;;;11.80;99.90;;;;;;6281701;22;20050;-92
2022/10/19 07:48:59;;;;;;;1.67;0.25;;;11.80;99.90;;;;;;6255640;22;20015;-96
2022/10/19 07:51:25;;;;;;;;;;;11.80;99.90;;;;;;6256343;22;20037;-92
2022/10/19 07:54:05;;;;;;;2.70;0.30;;;11.90;99.90;;;;;;6255599;22;19915;-94
2022/10/19 07:56:31;;;;;;;1.67;0.22;;;11.90;99.90;;;;;;6232024;22;20124;-91
2022/10/19 07:58:59;;;;;;;3.15;0.38;;;11.90;99.90;;;;;;6255260;22;20015;-95
2022/10/19 08:01:29;;;;;;;2.35;0.15;;;11.90;99.90;;;;;;6255541;22;20021;-92
2022/10/19 08:03:57;;;;;;;4.40;0.40;;;12.00;99.90;;;;;;6230608;22;20015;-92
2022/10/19 08:06:23;;;;;;;3.03;0.20;;;11.90;99.90;;;;;;6255830;22;20011;-91
2022/10/19 08:08:50;;;;;;;2.55;0.63;;;12.00;99.90;;;;;;6255761;22;20023;-94
2022/10/19 08:11:22;;;;;;;1.25;0.20;;;12.00;99.90;;;;;;6230576;22;20043;-91
2022/10/19 08:13:48;;;;;;;2.28;0.22;;;12.00;99.90;;;;;;6255854;22;20068;-92
2022/10/19 08:16:22;;;;;;;1.48;0.25;;;12.10;99.90;;;;;;6230882;22;20098;-92
2022/10/19 08:18:56;;;;;;;2.67;0.30;;;12.10;99.90;;;;;;6255424;22;20456;-92
2022/10/19 08:21:26;;;;;;;3.67;0.30;;;12.20;99.90;;;;;;6281253;22;20117;-91
2022/10/19 08:23:52;;;;;;;0.68;0.22;;;12.10;99.90;;;;;;6230367;22;20246;-92
2022/10/19 08:26:18;;;;;;;4.10;0.30;;;12.20;99.90;;;;;;6230465;22;20039;-91
2022/10/19 08:29:12;;;;;;;1.05;0.20;;;12.30;99.90;;;;;;6255631;22;20296;-91
2022/10/19 08:31:38;;;;;;;2.53;0.30;;;12.30;99.90;;;;;;6226986;22;20023;-92
2022/10/19 08:34:05;;;;;;;1.50;0.43;;;12.30;99.90;;;;;;6262361;22;20039;-90
2022/10/19 08:36:35;;;;;;;2.00;0.30;;;12.30;99.90;;;;;;6307397;22;20021;-91
2022/10/19 08:39:06;;;;;;;1.02;0.20;;;12.30;99.90;;;;;;6245215;22;20015;-95
2022/10/19 08:42:14;;;;;;;2.22;0.38;;;12.40;99.90;;;;;;6255188;22;20023;-91
2022/10/19 08:45:07;;;;;;;3.95;0.50;;;12.40;99.90;;;;;;6255744;22;20020;-90
2022/10/19 08:48:16;;;;;;;1.40;0.28;;;12.40;99.90;;;;;;6255415;22;20425;-94
2022/10/19 08:51:12;;;;;;;3.40;0.30;;;12.40;99.90;;;;;;6256232;22;20062;-92
2022/10/19 08:54:17;;;;;;;1.52;0.50;;;12.40;99.90;;;;;;6255907;22;20011;-93
2022/10/19 09:06:04;;;;;;;2.17;0.20;;;12.60;99.90;;;;;;6277796;22;20027;-95
2022/10/19 09:16:18;;;;;;;0.68;0.10;;;12.70;99.90;;;;;;6267694;22;20504;-94
2022/10/19 09:18:48;;;;;;;1.23;0.40;;;12.70;99.90;;;;;;6224208;22;20389;-89
2022/10/19 09:21:34;;;;;;;2.17;0.85;;;12.70;99.90;;;;;;6224234;22;20020;-90
2022/10/19 09:24:41;;;;;;;3.70;0.63;;;12.70;99.90;;;;;;6224378;22;20015;-91
2022/10/19 09:27:20;;;;;;;1.88;0.43;;;12.70;99.90;;;;;;6250095;22;20023;-93
2022/10/19 09:29:56;;;;;;;1.95;0.47;;;12.60;99.90;;;;;;6224718;22;20023;-94
2022/10/19 09:33:06;;;;;;;3.67;0.40;;;12.60;99.90;;;;;;6224508;22;20015;-96
2022/10/19 09:35:37;;;;;;;2.55;0.60;;;12.60;99.90;;;;;;6226590;22;20031;-94
2022/10/19 09:38:18;;;;;;;3.92;0.70;;;12.60;99.90;;;;;;6227071;22;20334;-95
2022/10/19 09:40:47;;;;;;;3.45;0.70;;;12.60;99.90;;;;;;6218025;22;20023;-93
2022/10/19 09:43:19;;;;;;;2.50;0.40;;;12.60;99.90;;;;;;6257239;22;20313;-95
2022/10/19 09:46:37;;;;;;;3.42;0.65;;;12.60;99.90;;;;;;6257307;22;20337;-94
2022/10/19 09:49:04;;;;;;;5.97;0.60;;;12.70;99.90;;;;;;6175607;22;20098;-92
2022/10/19 09:52:09;;;;;;;2.58;0.43;;;12.70;99.90;;;;;;6232578;22;20011;-96
2022/10/19 09:54:36;;;;;;;1.63;0.40;;;12.70;99.90;;;;;;6282300;22;20023;-95
2022/10/19 09:57:03;;;;;;;2.05;0.40;;;12.70;99.90;;;;;;6256694;22;20141;-96
2022/10/19 09:59:41;;;;;;;1.80;0.50;;;12.60;99.90;;;;;;6257291;22;20011;-96
2022/10/19 10:02:24;;;;;;;2.63;0.40;;;12.70;99.90;;;;;;6231895;22;20019;-96
2022/10/19 10:05:05;;;;;;;2.05;0.50;;;12.60;99.90;;;;;;6257060;22;20015;-96
2022/10/19 10:07:37;;;;;;;1.90;0.40;;;12.70;99.90;;;;;;6257110;22;20395;-94
2022/10/19 10:10:22;;;;;;;2.22;0.40;;;12.70;99.90;;;;;;6282830;22;20026;-95
2022/10/19 10:12:48;;;;;;;2.38;0.40;;;12.60;99.90;;;;;;6258785;22;20015;-91
2022/10/19 10:15:22;;;;;;;2.58;0.35;;;12.70;99.90;;;;;;6257968;22;20018;-96
2022/10/19 10:17:49;;;;;;;1.05;0.28;;;12.70;99.90;;;;;;6257925;22;20019;-92
2022/10/19 10:20:30;;;;;;;1.13;0.40;;;12.70;99.90;;;;;;6256748;22;20026;-94
2022/10/19 10:23:01;;;;;;;3.20;0.52;;;12.70;99.90;;;;;;6231300;22;20011;-94
2022/10/19 10:25:30;;;;;;;3.28;1.00;;;12.70;99.90;;;;;;6255675;22;20017;-94
2022/10/19 10:28:20;;;;;;;1.80;0.40;;;12.80;99.90;;;;;;6258414;22;20019;-93
2022/10/19 10:30:51;;;;;;;2.35;0.25;;;12.80;99.90;;;;;;6244701;22;20020;-92
2022/10/19 10:33:25;;;;;;;1.25;0.25;;;12.90;99.90;;;;;;6259781;22;20103;-93
2022/10/19 10:35:58;;;;;;;3.25;0.40;;;12.80;99.90;;;;;;6259947;22;20074;-91
2022/10/19 10:38:50;;;;;;;5.65;0.45;;;12.80;99.90;;;;;;6232680;22;20341;-91
2022/10/19 10:41:27;;;;;;;1.52;0.28;;;12.80;99.90;;;;;;6257651;22;20016;-95
2022/10/19 10:44:05;;;;;;;2.33;0.55;;;12.80;99.90;;;;;;6258813;22;20015;-96
2022/10/19 10:46:53;;;;;;;0.85;0.30;;;12.80;99.90;;;;;;6257545;22;20085;-92
2022/10/19 10:49:26;;;;;;;0.68;0.10;;;12.80;99.90;;;;;;6258047;22;20103;-95
2022/10/19 10:51:57;;;;;;;1.38;0.30;;;12.80;99.90;;;;;;6258525;22;20008;-96
2022/10/19 10:54:25;;;;;;;2.70;0.35;;;12.90;99.90;;;;;;6258335;22;20023;-94
2022/10/19 10:57:15;;;;;;;2.75;0.30;;;12.90;99.90;;;;;;6284003;22;20015;-95
2022/10/19 10:59:56;;;;;;;1.98;0.30;;;12.90;99.90;;;;;;6256692;22;20015;-93
2022/10/19 11:02:49;;;;;;;2.63;0.28;;;12.90;99.90;;;;;;6257234;22;20019;-93
2022/10/19 11:06:12;;;;;;;0.80;0.20;;;13.00;99.90;;;;;;6236591;22;20015;-93
2022/10/19 11:09:32;;;;;;;1.70;0.40;;;13.00;99.90;;;;;;6105012;23;20033;-95
2022/10/19 11:29:53;;;;;;;5.43;1.90;;;13.10;99.90;;;;;;6296413;22;20015;-91
2022/10/19 11:32:29;;;;;;;4.85;1.60;;;13.10;99.90;;;;;;6256214;22;20026;-90
2022/10/19 11:35:10;;;;;;;2.78;0.85;;;13.20;99.90;;;;;;6255402;22;20015;-91
2022/10/19 11:37:51;;;;;;;5.03;1.30;;;13.20;99.90;;;;;;6256725;22;20070;-93
2022/10/19 11:43:50;;;;;;;1.63;0.30;;;13.30;99.90;;;;;;6281456;22;20098;-91
2022/10/19 11:46:20;;;;;;;0.65;0.20;;;13.30;99.90;;;;;;6255488;22;20019;-90
2022/10/19 11:49:12;;;;;;;1.73;0.43;;;13.40;99.90;;;;;;6254076;22;20369;-90
2022/10/19 11:51:56;;;;;;;1.52;0.40;;;13.40;99.90;;;;;;6254184;22;20049;-90
2022/10/19 11:54:51;;;;;;;1.08;0.30;;;13.40;99.90;;;;;;6266017;22;20007;-90
2022/10/19 11:57:48;;;;;;;1.67;0.30;;;13.40;99.90;;;;;;6302644;22;20026;-90
2022/10/19 12:01:26;;;;;;;2.08;0.52;;;13.40;99.90;;;;;;6280302;22;20026;-90
2022/10/19 12:25:57;;;;;;;1.83;0.60;;;13.20;99.90;;;;;;6277267;22;20020;-93
2022/10/19 12:28:28;;;;;;;1.45;0.40;;;13.30;99.90;;;;;;6225263;22;20027;-96
2022/10/19 12:30:55;;;;;;;2.20;0.40;;;13.20;99.90;;;;;;6225618;22;20012;-92
2022/10/19 12:33:45;;;;;;;;;;;;;;;;;;;;;
2022/10/19 12:36:45;;;;;;;2.22;0.50;;;13.30;99.90;;;;;;6246641;22;20020;-94
2022/10/19 12:39:29;;;;;;;3.00;0.60;;;13.30;99.90;;;;;;6249816;22;20039;-90
2022/10/19 12:41:58;;;;;;;2.05;0.68;;;13.30;99.90;;;;;;6224664;22;20019;-91
2022/10/19 12:45:09;;;;;;;2.33;0.70;;;13.40;99.90;;;;;;6223342;22;20019;-92
2022/10/19 12:47:38;;;;;;;1.98;0.60;;;13.50;99.90;;;;;;6249930;22;20380;-91
2022/10/19 12:50:04;;;;;;;2.13;0.68;;;13.50;99.90;;;;;;6223987;22;20026;-91
2022/10/19 12:52:48;;;;;;;2.30;0.95;;;13.60;99.90;;;;;;6225691;22;20012;-97
2022/10/19 12:55:13;;;;;;;1.02;0.50;;;13.50;99.90;;;;;;6224869;22;20022;-91
2022/10/19 12:57:42;;;;;;;1.03;0.40;;;13.60;99.90;;;;;;6225969;22;20055;-89
2022/10/19 13:00:19;;;;;;;4.45;0.65;;;13.60;99.90;;;;;;6224785;22;20090;-92
2022/10/19 13:02:46;;;;;;;2.30;0.70;;;13.60;99.90;;;;;;6224949;22;20073;-90
2022/10/19 13:05:22;;;;;;;1.00;0.50;;;13.60;99.90;;;;;;6225014;22;20066;-91
2022/10/19 13:07:53;;;;;;;1.55;0.40;;;13.50;99.90;;;;;;6225752;22;20026;-90
2022/10/19 13:10:25;;;;;;;2.90;0.40;;;13.50;99.90;;;;;;6227464;22;20018;-91
2022/10/19 13:12:52;;;;;;;4.38;0.63;;;13.40;99.90;;;;;;6226912;22;20016;-93
2022/10/19 13:15:36;;;;;;;2.22;0.40;;;13.40;99.90;;;;;;6227562;22;20012;-91
2022/10/19 13:18:15;;;;;;;1.05;0.32;;;13.30;99.90;;;;;;6252360;22;20015;-95
2022/10/19 13:20:52;;;;;;;0.73;0.20;;;13.30;99.90;;;;;;6227579;22;20015;-91
2022/10/19 13:23:33;;;;;;;2.42;0.40;;;13.10;99.90;;;;;;6228450;22;20038;-92
2022/10/19 13:26:37;;;;;;;2.08;0.40;;;13.00;99.90;;;;;;6227309;22;20064;-95
2022/10/19 13:29:24;;;;;;;1.52;0.40;;;13.00;99.90;;;;;;6132003;23;20025;-90
2022/10/19 13:31:50;;;;;;;1.65;0.30;;;12.90;99.90;;;;;;6132512;23;20051;-90
2022/10/19 13:34:16;;;;;;;2.17;0.52;;;13.00;99.90;;;;;;6192901;22;20016;-94
2022/10/19 13:37:02;;;;;;;2.58;0.30;;;12.90;99.90;;;;;;6227323;22;20050;-91
2022/10/19 13:39:29;;;;;;;1.42;0.50;;;13.00;99.90;;;;;;6226760;22;20396;-90
2022/10/19 13:41:58;;;;;;;;;;;13.00;99.90;;;;;;6201746;22;20023;-91
2022/10/19 13:44:44;;;;;;;1.23;0.20;;;13.10;99.90;;;;;;6226764;22;19919;-92
2022/10/19 13:47:51;;;;;;;0.98;0.40;;;13.10;99.90;;;;;;6224045;22;20338;-92
2022/10/19 13:50:43;;;;;;;2.95;0.40;;;13.10;99.90;;;;;;6155028;23;20371;-91
2022/10/19 13:53:24;;;;;;;0.63;0.30;;;13.10;99.90;;;;;;6106675;23;20017;-91
2022/10/19 13:56:18;;;;;;;3.50;0.30;;;13.10;99.90;;;;;;6198731;22;20018;-91
2022/10/19 13:59:15;;;;;;;2.50;0.30;;;13.00;99.90;;;;;;6211316;22;20026;-94
2022/10/19 14:02:01;;;;;;;1.60;0.57;;;13.00;99.90;;;;;;6253428;22;20016;-96
2022/10/19 14:05:04;;;;;;;3.65;0.40;;;13.00;99.90;;;;;;6256328;22;20004;-91
2022/10/19 14:07:40;;;;;;;2.65;0.40;;;13.00;99.90;;;;;;6221993;22;20020;-95
2022/10/19 14:10:13;;;;;;;2.88;0.30;;;12.90;99.90;;;;;;6226058;22;20023;-90
2022/10/19 14:12:42;;;;;;;2.65;0.50;;;12.90;99.90;;;;;;6224543;22;20053;-92
2022/10/19 14:15:17;;;;;;;1.55;0.40;;;12.90;99.90;;;;;;6224501;22;20111;-91
2022/10/19 14:17:43;;;;;;;3.25;0.60;;;12.90;99.90;;;;;;6251534;22;20098;-95
2022/10/19 14:20:24;;;;;;;2.78;0.70;;;12.80;99.90;;;;;;6201531;22;20023;-94
2022/10/19 14:22:49;;;;;;;2.45;0.55;;;12.80;99.90;;;;;;6252463;22;20023;-94
2022/10/19 14:25:18;;;;;;;2.60;0.87;;;12.80;99.90;;;;;;6225853;22;20016;-96
2022/10/19 14:27:50;;;;;;;1.85;0.32;;;12.80;99.90;;;;;;6227080;22;20103;-95
2022/10/19 14:30:30;;;;;;;1.63;0.50;;;12.80;99.90;;;;;;6227982;22;20020;-94
2022/10/19 14:32:56;;;;;;;2.40;0.47;;;12.80;99.90;;;;;;6227369;22;20016;-96
2022/10/19 14:35:23;;;;;;;0.90;0.40;;;12.80;99.90;;;;;;6227906;22;20016;-92
2022/10/19 14:37:50;;;;;;;2.65;0.55;;;12.80;99.90;;;;;;6226374;22;20015;-95
2022/10/19 14:40:29;;;;;;;0.98;0.45;;;12.80;99.90;;;;;;6246612;22;20055;-92
2022/10/19 14:42:56;;;;;;;3.47;0.70;;;12.80;99.90;;;;;;6246189;22;20459;-95
2022/10/19 14:46:21;;;;;;;7.07;0.65;;;12.80;99.90;;;;;;6226041;22;20012;-92
2022/10/19 14:49:37;;;;;;;3.53;0.50;;;12.70;99.90;;;;;;6207960;22;20016;-92
2022/10/19 14:52:27;;;;;;;3.33;0.60;;;12.70;99.90;;;;;;6202433;22;20016;-92
2022/10/19 14:55:31;;;;;;;1.70;0.40;;;12.70;99.90;;;;;;6217762;22;20069;-94
2022/10/19 14:58:47;;;;;;;1.45;0.32;;;12.70;99.90;;;;;;6067493;23;20025;-94
2022/10/19 15:01:36;;;;;;;1.75;0.50;;;12.70;99.90;;;;;;6176686;23;20410;-92
2022/10/19 15:04:08;;;;;;;2.90;0.60;;;12.70;99.90;;;;;;6191676;22;20020;-95
2022/10/19 15:06:34;;;;;;;3.45;0.50;;;12.60;99.90;;;;;;6225952;22;20011;-94
2022/10/19 15:09:06;;;;;;;1.77;0.40;;;12.60;99.90;;;;;;6201394;22;20050;-93
2022/10/19 15:11:45;;;;;;;4.13;0.98;;;12.60;99.90;;;;;;6226473;22;20333;-91
2022/10/19 15:14:15;;;;;;;1.98;0.60;;;12.60;99.90;;;;;;6226277;22;20047;-92
2022/10/19 15:16:59;;;;;;;2.15;0.60;;;12.50;99.90;;;;;;6226058;22;20349;-95
2022/10/19 15:19:37;;;;;;;3.58;0.80;;;12.50;99.90;;;;;;6226272;22;20019;-93
2022/10/19 15:22:19;;;;;;;2.75;0.63;;;12.50;99.90;;;;;;6225611;22;20019;-94
2022/10/19 15:57:37;;;;;;;4.25;1.10;;;11.90;99.90;;;;;;6252965;22;20028;-91
2022/10/19 16:00:14;;;;;;;6.63;1.33;;;11.80;99.90;;;;;;6225513;22;20015;-91
2022/10/19 16:02:40;;;;;;;4.18;1.40;;;11.80;99.90;;;;;;6225627;22;20020;-95
2022/10/19 16:05:07;;;;;;;4.50;1.63;;;11.80;99.90;;;;;;6225562;22;20073;-94
2022/10/19 16:07:36;;;;;;;4.72;1.42;;;11.70;99.90;;;;;;6225515;22;20085;-91
2022/10/19 16:10:06;;;;;;;5.20;1.33;;;11.60;99.90;;;;;;6224858;22;20073;-92
2022/10/19 16:12:32;;;;;;;4.85;1.80;;;11.60;99.90;;;;;;6225336;22;20026;-96
2022/10/19 16:14:57;;;;;;;3.57;1.60;;;11.60;99.90;;;;;;6225100;22;20012;-93
2022/10/19 16:17:23;;;;;;;4.80;2.10;;;11.50;99.90;;;;;;6225156;22;20019;-92
2022/10/19 16:19:49;;;;;;;5.55;1.75;;;11.40;99.90;;;;;;6225446;22;20047;-93
2022/10/19 16:22:15;;;;;;;5.43;2.20;;;11.40;99.90;;;;;;6225172;22;20016;-94
2022/10/19 16:24:41;;;;;;;6.45;2.33;;;11.30;99.90;;;;;;6230186;22;20323;-92
2022/10/19 16:27:08;;;;;;;4.72;2.38;;;11.30;99.90;;;;;;6255682;22;20448;-92
2022/10/19 16:29:34;;;;;;;;;;;11.20;99.90;;;;;;6256372;22;20018;-94
2022/10/19 16:32:00;;;;;;;6.93;2.45;;;11.20;99.90;;;;;;6255710;22;19914;-93
2022/10/19 16:34:26;;;;;;;4.72;2.65;;;11.10;99.90;;;;;;6230810;22;20011;-93
2022/10/19 16:36:52;;;;;;;7.05;2.70;;;11.10;99.90;;;;;;6255717;22;20025;-91
2022/10/19 16:39:47;;;;;;;6.07;2.95;;;11.10;99.90;;;;;;6230265;22;20022;-93
2022/10/19 16:42:13;;;;;;;5.47;2.55;;;11.00;99.90;;;;;;6230478;22;20016;-91
2022/10/19 17:09:39;;;;;;;7.30;3.03;;;10.60;99.90;;;;;;6278384;22;20023;-91
2022/10/19 17:12:06;;;;;;;7.20;2.78;;;10.60;99.90;;;;;;6207010;22;20030;-93
2022/10/19 17:14:48;;;;;;;;;;;10.60;99.90;;;;;;6257865;22;20066;-95
2022/10/19 17:17:40;;;;;;;6.20;2.55;;;10.60;99.90;;;;;;6077408;23;19932;-91
2022/10/19 17:38:13;;;;;;;6.22;2.03;;;10.50;99.90;;;;;;6247991;22;20028;-92
2022/10/19 17:40:39;;;;;;;4.18;1.95;;;10.50;99.90;;;;;;6171558;23;20073;-91
2022/10/19 17:43:05;;;;;;;4.33;1.70;;;10.50;99.90;;;;;;6171751;23;20012;-90
2022/10/19 17:45:30;;;;;;;5.27;2.27;;;10.50;99.90;;;;;;6196482;23;20441;-91
2022/10/19 17:47:56;;;;;;;4.67;1.67;;;10.50;99.90;;;;;;6147135;23;20024;-92
2022/10/19 17:50:22;;;;;;;7.23;1.60;;;10.50;99.90;;;;;;6147242;23;20513;-91
2022/10/19 17:52:48;;;;;;;4.73;1.97;;;10.40;99.90;;;;;;6171753;23;20083;-92
2022/10/19 17:55:13;;;;;;;3.43;1.30;;;10.40;99.90;;;;;;6195943;23;20468;-92
2022/10/19 17:57:39;;;;;;;2.77;1.30;;;10.40;99.90;;;;;;6196597;23;20066;-90
2022/10/19 18:00:06;;;;;;;2.97;1.40;;;10.40;99.90;;;;;;6196527;23;20051;-89
2022/10/19 18:02:32;;;;;;;;;;;10.40;99.90;;;;;;6172370;23;20027;-91
2022/10/19 18:04:58;;;;;;;3.80;1.20;;;10.40;99.90;;;;;;6246718;23;19916;-91
2022/10/19 18:07:25;;;;;;;3.90;1.27;;;10.40;99.90;;;;;;6196285;23;20034;-92
2022/10/19 18:09:51;;;;;;;4.10;1.40;;;10.40;99.90;;;;;;6147372;23;20346;-91
2022/10/19 18:12:17;;;;;;;5.22;1.15;;;10.40;99.90;;;;;;6171535;23;20020;-91
2022/10/19 18:14:43;;;;;;;2.78;1.30;;;10.30;99.90;;;;;;6196165;23;20020;-91
2022/10/19 18:17:09;;;;;;;3.63;1.40;;;10.30;99.90;;;;;;6195899;23;20016;-93
2022/10/19 18:19:35;;;;;;;6.25;1.20;;;10.30;99.90;;;;;;6171701;23;20016;-90
2022/10/19 18:22:01;;;;;;;2.63;1.10;;;10.20;99.90;;;;;;6196058;23;20087;-90
2022/10/19 18:24:27;;;;;;;2.95;1.13;;;10.20;99.90;;;;;;6196415;23;20016;-92
2022/10/19 18:26:53;;;;;;;4.32;1.70;;;10.20;99.90;;;;;;6196141;23;20467;-90
2022/10/19 18:29:21;;;;;;;2.30;1.00;;;10.20;99.90;;;;;;6196357;23;20020;-92
2022/10/19 18:31:50;;;;;;;3.88;1.20;;;10.10;99.90;;;;;;6196532;23;20051;-90
2022/10/19 18:34:18;;;;;;;2.92;1.23;;;10.10;99.90;;;;;;6196238;23;20066;-90
2022/10/19 19:03:46;;;;;;;3.25;1.10;;;9.90;99.90;;;;;;6284133;22;20027;-93
2022/10/19 19:06:18;;;;;;;3.92;1.02;;;9.80;99.90;;;;;;6256376;22;20348;-93
2022/10/19 19:08:44;;;;;;;4.70;1.33;;;9.80;99.90;;;;;;6256577;22;20071;-92
2022/10/19 19:11:11;;;;;;;2.70;1.10;;;9.80;99.90;;;;;;6256133;22;20057;-93
2022/10/19 19:16:03;;;;;;;4.63;1.20;;;9.80;99.90;;;;;;6274982;22;20027;-91
2022/10/19 19:18:31;;;;;;;2.55;1.08;;;9.80;99.90;;;;;;6201060;22;20023;-93
2022/10/19 19:20:57;;;;;;;2.33;1.30;;;9.80;99.90;;;;;;6176230;22;20007;-91
2022/10/19 19:46:34;;;;;;;5.25;2.10;;;9.60;99.90;;;;;;6259246;22;20031;-91
2022/10/19 19:49:02;;;;;;;5.38;1.80;;;9.50;99.90;;;;;;6171309;23;20031;-94
2022/10/19 19:51:30;;;;;;;6.50;2.20;;;9.50;99.90;;;;;;6195404;23;20079;-91
2022/10/19 19:53:57;;;;;;;4.55;1.70;;;9.50;99.90;;;;;;6195498;23;20071;-92
2022/10/19 19:56:23;;;;;;;5.88;2.00;;;9.50;99.90;;;;;;6195603;23;20050;-90
2022/10/19 19:58:53;;;;;;;4.47;2.00;;;9.50;99.90;;;;;;6195375;23;20074;-91
2022/10/19 20:01:20;;;;;;;5.80;1.50;;;9.50;99.90;;;;;;6195262;23;20012;-91
2022/10/19 20:03:47;;;;;;;3.38;1.65;;;9.50;99.90;;;;;;6169094;23;20377;-91
2022/10/19 20:06:15;;;;;;;3.78;1.70;;;9.50;99.90;;;;;;6193988;23;20441;-91
2022/10/19 20:08:41;;;;;;;5.03;2.13;;;9.40;99.90;;;;;;6193583;23;20102;-93
2022/10/19 20:11:09;;;;;;;4.20;1.97;;;9.40;99.90;;;;;;6180469;23;20004;-91
2022/10/19 20:13:35;;;;;;;6.28;1.90;;;9.40;99.90;;;;;;6220358;23;20019;-93